Time;durP1;ratioP1;P1;durP2;ratioP2;P2;SDS_P1;SDS_P2;PMS_P1;PMS_P2;Temp;Humidity;BMP_temperature;BMP_pressure;BME280_temperature;BME280_humidity;BME280_pressure;Samples;Min_cycle;Max_cycle;Signal;HPM_P1;HPM_P2
2023/05/14 00:01:34;;;;;;;12.83;11.53;;;;;;;12.92;100.00;95521.91;4984817;28;20223;-87
2023/05/14 00:04:04;;;;;;;12.33;11.13;;;;;;;12.84;100.00;95515.13;4978753;28;20208;-88
2023/05/14 00:06:33;;;;;;;13.33;11.93;;;;;;;12.88;100.00;95510.38;4969854;28;20318;-88
2023/05/14 00:09:01;;;;;;;13.07;11.67;;;;;;;12.87;99.47;95508.78;4969276;28;20869;-88
2023/05/14 00:11:27;;;;;;;12.93;11.63;;;;;;;12.89;99.49;95511.97;4969606;28;20227;-87
2023/05/14 00:13:56;;;;;;;12.17;10.97;;;;;;;12.95;99.12;95506.81;4970392;28;20207;-87
2023/05/14 00:16:22;;;;;;;12.03;10.90;;;;;;;13.02;98.55;95507.66;4967615;28;20197;-88
2023/05/14 00:18:49;;;;;;;14.30;10.77;;;;;;;13.13;97.45;95511.44;4964640;28;20208;-87
2023/05/14 00:21:17;;;;;;;11.37;10.23;;;;;;;13.05;96.80;95511.63;4968501;28;20626;-87
2023/05/14 00:23:43;;;;;;;11.73;10.53;;;;;;;13.00;97.26;95506.25;4970393;28;20218;-87
2023/05/14 00:26:11;;;;;;;11.13;10.13;;;;;;;12.97;97.77;95509.22;4970370;28;20208;-87
2023/05/14 00:28:37;;;;;;;11.40;10.30;;;;;;;12.95;97.81;95500.84;4969766;28;20208;-87
2023/05/14 00:31:07;;;;;;;12.47;11.17;;;;;;;12.84;97.86;95499.63;4969509;28;20231;-88
2023/05/14 00:33:34;;;;;;;11.73;10.63;;;;;;;12.84;98.65;95506.56;4969895;28;20211;-87
2023/05/14 00:36:00;;;;;;;11.33;10.13;;;;;;;12.93;97.87;95501.03;4969342;28;20283;-87
2023/05/14 00:38:29;;;;;;;11.73;10.63;;;;;;;13.04;97.02;95508.25;4969480;28;20204;-87
2023/05/14 00:40:58;;;;;;;11.43;10.33;;;;;;;13.05;96.26;95511.63;4969146;28;20220;-87
2023/05/14 00:43:26;;;;;;;14.07;10.00;;;;;;;13.08;96.63;95501.69;4969361;28;20204;-88
2023/05/14 00:45:54;;;;;;;11.63;10.50;;;;;;;13.07;95.82;95499.31;4969349;28;20913;-88
2023/05/14 00:48:21;;;;;;;11.60;10.40;;;;;;;13.10;95.48;95496.31;4969914;28;20207;-87
2023/05/14 00:50:49;;;;;;;13.67;10.83;;;;;;;12.99;95.46;95502.84;4969103;28;20220;-86
2023/05/14 00:53:17;;;;;;;12.03;9.97;;;;;;;13.06;95.48;95500.31;4969665;28;20211;-87
2023/05/14 00:55:46;;;;;;;11.80;10.50;;;;;;;13.12;94.58;95492.56;4969806;28;20204;-87
2023/05/14 00:58:13;;;;;;;10.83;9.70;;;;;;;13.13;94.44;95496.72;4969466;28;20204;-87
2023/05/14 01:00:42;;;;;;;12.07;10.87;;;;;;;13.16;94.40;95490.41;4978070;28;20708;-87
2023/05/14 01:03:08;;;;;;;11.37;10.17;;;;;;;13.23;93.71;95486.06;4987196;28;20200;-87
2023/05/14 01:05:41;;;;;;;12.07;10.87;;;;;;;13.09;93.68;95495.53;4969245;28;20196;-87
2023/05/14 01:08:13;;;;;;;12.63;11.43;;;;;;;13.04;93.95;95495.31;4969481;28;20203;-87
2023/05/14 01:10:45;;;;;;;11.50;10.40;;;;;;;13.05;94.57;95490.97;4969314;28;20215;-88
2023/05/14 01:13:19;;;;;;;12.33;11.13;;;;;;;13.00;94.01;95499.28;4969033;28;20231;-87
2023/05/14 01:15:56;;;;;;;12.53;10.93;;;;;;;13.02;93.96;95494.72;4972116;28;20194;-87
2023/05/14 01:18:24;;;;;;;12.33;9.93;;;;;;;13.06;93.79;95497.72;4972743;28;20261;-87
2023/05/14 01:20:51;;;;;;;11.60;10.50;;;;;;;13.12;93.36;95492.56;4973101;28;20327;-87
2023/05/14 01:23:19;;;;;;;11.97;10.37;;;;;;;13.05;93.03;95494.34;4972853;28;20204;-87
2023/05/14 01:25:45;;;;;;;11.80;9.80;;;;;;;13.07;93.06;95478.63;4973221;28;20204;-88
2023/05/14 01:28:17;;;;;;;12.67;11.40;;;;;;;13.08;93.15;95488.75;4972812;28;20203;-87
2023/05/14 01:30:51;;;;;;;11.63;10.53;;;;;;;13.10;92.31;95480.81;4972384;28;20295;-88
2023/05/14 01:33:19;;;;;;;12.40;11.10;;;;;;;13.04;92.42;95479.03;4973847;28;20226;-87
2023/05/14 01:35:48;;;;;;;11.47;10.33;;;;;;;13.04;92.93;95486.78;4973745;28;20208;-87
2023/05/14 01:38:19;;;;;;;10.87;9.77;;;;;;;13.09;92.76;95480.00;4973169;28;20558;-87
2023/05/14 01:40:47;;;;;;;11.53;10.33;;;;;;;13.11;92.04;95483.19;4972551;28;20236;-87
2023/05/14 01:43:18;;;;;;;11.87;10.67;;;;;;;13.07;92.37;95476.06;4973050;28;20634;-87
2023/05/14 01:45:47;;;;;;;12.13;10.83;;;;;;;13.08;91.76;95475.84;4973036;28;20204;-87
2023/05/14 01:48:17;;;;;;;14.50;10.93;;;;;;;13.01;91.72;95477.63;4973417;28;20204;-88
2023/05/14 01:50:44;;;;;;;11.43;10.27;;;;;;;13.08;91.80;95475.06;4972261;28;20246;-87
2023/05/14 01:53:10;;;;;;;11.43;10.27;;;;;;;13.11;91.64;95478.03;4973020;28;20215;-87
2023/05/14 01:55:38;;;;;;;11.50;10.30;;;;;;;13.10;91.39;95465.31;4973038;28;20679;-87
2023/05/14 01:58:07;;;;;;;10.97;9.83;;;;;;;13.12;90.93;95463.31;4972660;28;20204;-87
2023/05/14 02:00:34;;;;;;;12.47;10.27;;;;;;;13.16;90.60;95464.56;4976745;28;20220;-87
2023/05/14 02:03:01;;;;;;;11.50;9.50;;;;;;;13.18;90.38;95464.38;4972263;28;20200;-87
2023/05/14 02:05:30;;;;;;;11.67;10.57;;;;;;;13.19;90.62;95461.59;4972541;28;20208;-87
2023/05/14 02:07:56;;;;;;;12.70;11.50;;;;;;;13.15;90.64;95452.63;4972800;28;20204;-87
2023/05/14 02:10:22;;;;;;;12.67;11.37;;;;;;;13.17;90.73;95460.19;4972571;28;20220;-87
2023/05/14 02:12:50;;;;;;;13.60;12.10;;;;;;;13.10;90.84;95457.53;4972287;28;20215;-87
2023/05/14 02:15:17;;;;;;;13.33;11.93;;;;;;;13.05;91.64;95463.31;4972821;28;20200;-87
2023/05/14 02:17:44;;;;;;;13.47;11.30;;;;;;;12.97;92.21;95455.72;4972380;28;20263;-87
2023/05/14 02:20:19;;;;;;;15.30;12.20;;;;;;;12.89;92.33;95465.47;4971892;28;20236;-86
2023/05/14 02:22:45;;;;;;;14.10;12.60;;;;;;;12.70;93.24;95461.81;4972131;28;20752;-87
2023/05/14 02:25:12;;;;;;;13.93;12.53;;;;;;;12.70;93.55;95464.38;4972649;28;20200;-87
2023/05/14 02:27:38;;;;;;;14.50;12.93;;;;;;;12.68;93.59;95458.63;4971536;28;20559;-87
2023/05/14 02:30:07;;;;;;;14.93;12.60;;;;;;;12.70;93.84;95459.22;4972413;28;20208;-87
2023/05/14 02:32:33;;;;;;;14.57;11.90;;;;;;;12.69;93.20;95452.47;4972251;28;20212;-88
2023/05/14 02:35:02;;;;;;;14.43;13.03;;;;;;;12.73;93.44;95454.44;4971601;28;20203;-88
2023/05/14 02:37:28;;;;;;;13.77;12.30;;;;;;;12.65;94.33;95459.00;4971532;28;20196;-87
2023/05/14 02:39:54;;;;;;;14.03;12.53;;;;;;;12.66;94.54;95468.34;4964217;28;20218;-88
2023/05/14 02:42:21;;;;;;;13.17;11.97;;;;;;;12.67;95.12;95457.03;4971883;28;20231;-87
2023/05/14 02:44:47;;;;;;;13.63;12.23;;;;;;;12.66;95.63;95458.00;4972742;28;20282;-87
2023/05/14 02:47:15;;;;;;;12.87;11.57;;;;;;;12.71;95.37;95451.25;4971700;28;20737;-87
2023/05/14 02:49:42;;;;;;;13.93;12.07;;;;;;;12.66;95.95;95461.38;4971519;28;20204;-87
2023/05/14 02:52:10;;;;;;;12.77;11.47;;;;;;;12.69;95.83;95458.44;4972186;28;20310;-87
2023/05/14 02:54:36;;;;;;;14.23;12.00;;;;;;;12.64;96.16;95457.41;4982222;28;20200;-87
2023/05/14 02:57:03;;;;;;;12.37;11.17;;;;;;;12.58;97.02;95453.78;4977951;28;20661;-88
2023/05/14 02:59:30;;;;;;;12.97;11.77;;;;;;;12.60;96.38;95456.97;4971680;28;20212;-87
2023/05/14 03:01:56;;;;;;;13.00;11.60;;;;;;;12.57;97.01;95452.19;4977072;28;20311;-87
2023/05/14 03:04:24;;;;;;;14.30;12.07;;;;;;;12.53;96.67;95450.97;4971743;28;20216;-87
2023/05/14 03:06:50;;;;;;;13.77;12.30;;;;;;;12.50;97.40;95453.16;4971685;28;20219;-88
2023/05/14 03:09:17;;;;;;;13.47;12.07;;;;;;;12.58;96.79;95447.81;4968704;28;20209;-87
2023/05/14 03:11:43;;;;;;;13.17;11.83;;;;;;;12.65;95.98;95448.66;4952679;28;20224;-87
2023/05/14 03:14:09;;;;;;;12.63;11.33;;;;;;;12.66;95.63;95443.31;4957661;28;20209;-89
2023/05/14 03:16:36;;;;;;;13.73;11.50;;;;;;;12.66;95.58;95447.69;4971939;28;20212;-88
2023/05/14 03:19:02;;;;;;;13.10;11.70;;;;;;;12.62;95.95;95443.88;4972165;28;20208;-87
2023/05/14 03:21:30;;;;;;;12.47;11.07;;;;;;;12.59;95.45;95439.88;4972071;28;20228;-88
2023/05/14 03:23:57;;;;;;;13.57;12.17;;;;;;;12.59;95.72;95441.66;4971885;28;20333;-87
2023/05/14 03:26:23;;;;;;;14.73;12.00;;;;;;;12.57;95.96;95444.44;4972131;28;20565;-86
2023/05/14 03:28:50;;;;;;;13.23;11.83;;;;;;;12.57;95.63;95438.47;4970801;28;20196;-87
2023/05/14 03:31:17;;;;;;;12.73;11.47;;;;;;;12.64;95.65;95437.53;4971231;28;20217;-87
2023/05/14 03:33:43;;;;;;;12.73;11.43;;;;;;;12.60;95.82;95441.47;4971320;28;20226;-87
2023/05/14 03:36:09;;;;;;;13.33;11.43;;;;;;;12.61;95.96;95431.94;4961513;28;20205;-87
2023/05/14 03:38:37;;;;;;;13.37;11.97;;;;;;;12.65;95.71;95440.91;4966074;28;20197;-88
2023/05/14 03:41:04;;;;;;;11.73;10.57;;;;;;;12.68;95.66;95443.91;4970343;28;20259;-87
2023/05/14 03:43:30;;;;;;;12.80;10.87;;;;;;;12.67;95.30;95432.00;4971430;28;20822;-87
2023/05/14 03:45:57;;;;;;;12.57;10.80;;;;;;;12.74;94.98;95429.41;4971504;28;20283;-87
2023/05/14 03:48:23;;;;;;;12.80;11.40;;;;;;;12.77;94.30;95421.28;4971118;28;20200;-87
2023/05/14 03:50:52;;;;;;;13.00;11.70;;;;;;;12.62;94.17;95428.38;4970903;28;20224;-88
2023/05/14 03:53:18;;;;;;;13.60;12.03;;;;;;;12.44;95.12;95428.91;4970865;28;20321;-88
2023/05/14 03:55:46;;;;;;;14.00;12.57;;;;;;;12.38;95.84;95430.44;4971138;28;20208;-87
2023/05/14 03:58:13;;;;;;;13.07;11.73;;;;;;;12.47;95.90;95425.94;4971114;28;20208;-87
2023/05/14 04:00:40;;;;;;;13.37;11.97;;;;;;;12.43;96.17;95430.69;4979268;28;20227;-87
2023/05/14 04:03:07;;;;;;;13.93;12.43;;;;;;;12.31;96.58;95428.84;4988262;28;20314;-89
2023/05/14 04:05:33;;;;;;;17.03;12.77;;;;;;;12.30;97.07;95433.22;4970446;28;20208;-88
2023/05/14 04:08:00;;;;;;;14.20;12.43;;;;;;;12.25;97.48;95427.00;4970421;28;20196;-87
2023/05/14 04:10:26;;;;;;;17.50;13.30;;;;;;;12.18;98.62;95431.34;4970356;28;20287;-87
2023/05/14 04:12:55;;;;;;;16.17;13.47;;;;;;;12.24;98.28;95433.16;4971025;28;20212;-87
2023/05/14 04:15:21;;;;;;;17.33;13.23;;;;;;;12.27;98.47;95427.63;4970896;28;20208;-87
2023/05/14 04:17:48;;;;;;;15.07;13.00;;;;;;;12.37;97.39;95430.63;4965644;28;20207;-87
2023/05/14 04:20:14;;;;;;;17.27;14.03;;;;;;;12.46;96.49;95432.09;4971488;28;20247;-87
2023/05/14 04:22:40;;;;;;;16.83;13.97;;;;;;;12.38;96.21;95427.06;4971296;28;20224;-87
2023/05/14 04:25:08;;;;;;;16.23;13.30;;;;;;;12.34;96.27;95439.56;4970945;28;20212;-87
2023/05/14 04:27:34;;;;;;;14.73;12.77;;;;;;;12.47;95.99;95438.06;4971104;28;20204;-87
2023/05/14 04:30:02;;;;;;;14.87;13.33;;;;;;;12.51;95.62;95434.88;4970548;28;20207;-88
2023/05/14 04:32:29;;;;;;;13.40;12.00;;;;;;;12.59;94.72;95431.34;4971412;28;20255;-88
2023/05/14 04:34:55;;;;;;;13.30;11.90;;;;;;;12.49;94.71;95434.28;4971217;28;20299;-88
2023/05/14 04:37:21;;;;;;;13.50;12.20;;;;;;;12.38;95.52;95437.41;4970404;28;20196;-87
2023/05/14 04:39:48;;;;;;;15.93;11.90;;;;;;;12.45;95.63;95435.66;4970221;28;20267;-87
2023/05/14 04:42:14;;;;;;;13.77;12.33;;;;;;;12.42;95.29;95438.63;4969965;28;20231;-86
2023/05/14 04:44:40;;;;;;;13.57;12.17;;;;;;;12.36;96.27;95440.16;4971186;28;20566;-87
2023/05/14 04:47:11;;;;;;;14.17;12.67;;;;;;;12.35;96.23;95443.75;4971234;28;20206;-87
2023/05/14 04:49:37;;;;;;;13.83;12.33;;;;;;;12.41;96.30;95439.59;4971460;28;20204;-88
2023/05/14 04:52:04;;;;;;;13.37;11.97;;;;;;;12.54;95.25;95437.06;4971587;28;20732;-87
2023/05/14 04:54:30;;;;;;;13.87;12.07;;;;;;;12.60;94.80;95431.16;4973962;28;20197;-86
2023/05/14 04:57:01;;;;;;;13.73;12.33;;;;;;;12.57;94.97;95444.44;4972454;28;20854;-88
2023/05/14 04:59:28;;;;;;;14.63;13.13;;;;;;;12.61;94.76;95442.28;4973559;28;20670;-87
2023/05/14 05:01:54;;;;;;;13.30;11.97;;;;;;;12.62;94.48;95436.94;4972104;28;20310;-87
2023/05/14 05:04:23;;;;;;;16.77;12.73;;;;;;;12.58;94.85;95438.28;4973090;28;20200;-86
2023/05/14 05:06:50;;;;;;;14.80;12.33;;;;;;;12.45;95.60;95433.06;4972507;28;20709;-87
2023/05/14 05:09:17;;;;;;;13.67;12.27;;;;;;;12.37;96.19;95439.19;4972875;28;20211;-87
2023/05/14 05:11:43;;;;;;;14.47;12.90;;;;;;;12.34;96.63;95438.75;4973873;28;20737;-89
2023/05/14 05:14:10;;;;;;;14.23;12.73;;;;;;;12.42;96.08;95438.63;4970595;28;20208;-86
2023/05/14 05:16:36;;;;;;;15.07;12.50;;;;;;;12.44;96.32;95440.03;4973699;28;20200;-86
2023/05/14 05:19:02;;;;;;;14.63;13.03;;;;;;;12.36;96.54;95439.38;4972560;28;20200;-87
2023/05/14 05:21:30;;;;;;;18.57;14.60;;;;;;;12.20;98.22;95439.69;4971885;28;20227;-87
2023/05/14 05:23:57;;;;;;;15.70;13.50;;;;;;;12.14;99.27;95437.84;4972622;28;20714;-86
2023/05/14 05:26:25;;;;;;;16.73;14.33;;;;;;;12.03;100.00;95445.16;4971532;28;20204;-86
2023/05/14 05:28:52;;;;;;;17.13;14.23;;;;;;;12.07;100.00;95443.00;4971925;28;20287;-88
2023/05/14 05:31:18;;;;;;;17.43;14.33;;;;;;;12.09;100.00;95439.25;4971007;28;20223;-87
2023/05/14 05:33:45;;;;;;;19.20;14.47;;;;;;;12.01;100.00;95449.69;4968813;28;20193;-87
2023/05/14 05:36:11;;;;;;;19.50;14.37;;;;;;;11.90;100.00;95441.69;4971350;28;20316;-87
2023/05/14 05:38:39;;;;;;;21.20;15.27;;;;;;;11.95;100.00;95447.06;4971589;28;20200;-87
2023/05/14 05:41:06;;;;;;;19.37;14.90;;;;;;;11.91;100.00;95444.09;4971360;28;20227;-87
2023/05/14 05:43:33;;;;;;;20.63;15.50;;;;;;;11.99;100.00;95438.75;4970426;28;20216;-87
2023/05/14 05:46:00;;;;;;;19.93;15.70;;;;;;;12.09;100.00;95446.97;4971380;28;20206;-86
2023/05/14 05:48:27;;;;;;;21.23;16.00;;;;;;;12.04;100.00;95444.16;4974851;28;20235;-88
2023/05/14 05:50:53;;;;;;;20.30;14.77;;;;;;;12.04;100.00;95453.69;4978520;28;20306;-87
2023/05/14 05:53:29;;;;;;;20.07;15.27;;;;;;;11.92;100.00;95450.84;4968862;28;20613;-87
2023/05/14 05:55:56;;;;;;;17.17;13.77;;;;;;;11.96;100.00;95453.81;4969770;28;20616;-86
2023/05/14 05:58:27;;;;;;;18.27;14.87;;;;;;;11.97;100.00;95451.06;4968163;28;20211;-87
2023/05/14 06:00:53;;;;;;;18.20;14.70;;;;;;;12.03;100.00;95454.66;4970894;28;20215;-86
2023/05/14 06:03:20;;;;;;;21.00;15.10;;;;;;;12.04;100.00;95456.25;4971291;28;20693;-87
2023/05/14 06:05:47;;;;;;;18.37;14.53;;;;;;;12.16;100.00;95453.94;4970504;28;20287;-87
2023/05/14 06:08:13;;;;;;;18.70;14.77;;;;;;;12.14;100.00;95450.75;4972255;28;20207;-86
2023/05/14 06:10:40;;;;;;;19.70;15.60;;;;;;;12.18;100.00;95446.81;4972045;28;20219;-86
2023/05/14 06:13:10;;;;;;;19.47;15.10;;;;;;;12.27;100.00;95443.91;4971890;28;20196;-86
2023/05/14 06:15:36;;;;;;;18.43;14.90;;;;;;;12.32;100.00;95446.69;4971653;28;20201;-87
2023/05/14 06:18:03;;;;;;;19.40;14.80;;;;;;;12.38;100.00;95443.34;4967069;28;20254;-87
2023/05/14 06:20:29;;;;;;;17.10;14.57;;;;;;;12.40;100.00;95446.56;4971292;28;20736;-88
2023/05/14 06:22:56;;;;;;;19.50;14.63;;;;;;;12.47;100.00;95444.00;4970996;28;20219;-88
2023/05/14 06:25:22;;;;;;;20.07;14.47;;;;;;;12.49;100.00;95439.47;4971983;28;20200;-89
2023/05/14 06:27:50;;;;;;;18.43;14.63;;;;;;;12.42;100.00;95446.38;4971983;28;20200;-88
2023/05/14 06:30:18;;;;;;;18.13;14.37;;;;;;;12.49;100.00;95438.66;4972215;28;20228;-88
2023/05/14 06:32:44;;;;;;;17.77;13.97;;;;;;;12.53;99.42;95443.22;4971571;28;20200;-87
2023/05/14 06:35:11;;;;;;;16.50;13.17;;;;;;;12.53;99.50;95442.44;4971834;28;20253;-88
2023/05/14 06:37:37;;;;;;;18.90;14.30;;;;;;;12.52;98.97;95444.22;4973340;28;20219;-86
2023/05/14 06:40:05;;;;;;;18.90;13.87;;;;;;;12.49;99.38;95438.66;4972772;28;20294;-88
2023/05/14 06:42:31;;;;;;;16.03;14.33;;;;;;;12.50;100.00;95446.22;4972028;28;20212;-87
2023/05/14 06:44:58;;;;;;;16.60;14.43;;;;;;;12.53;99.87;95440.66;4972635;28;20220;-87
2023/05/14 06:47:25;;;;;;;15.33;13.43;;;;;;;12.61;99.04;95434.53;4972904;28;20614;-86
2023/05/14 06:49:54;;;;;;;18.00;12.90;;;;;;;12.69;98.19;95440.34;4973172;28;20266;-87
2023/05/14 06:52:21;;;;;;;15.03;12.57;;;;;;;12.68;97.83;95432.78;4973384;28;20212;-87
2023/05/14 06:54:47;;;;;;;15.13;13.10;;;;;;;12.66;98.11;95438.13;4972033;28;20794;-88
2023/05/14 06:57:13;;;;;;;16.00;13.80;;;;;;;12.67;97.99;95437.16;4971228;28;20204;-88
2023/05/14 06:59:40;;;;;;;16.43;13.17;;;;;;;12.61;97.99;95444.88;4972377;28;20204;-88
2023/05/14 07:02:14;;;;;;;14.73;13.17;;;;;;;12.50;98.68;95448.00;4990535;28;20231;-88
2023/05/14 07:04:42;;;;;;;20.47;14.47;;;;;;;12.37;99.88;95441.75;4991803;28;20225;-88
2023/05/14 07:07:09;;;;;;;15.70;13.50;;;;;;;12.45;100.00;95443.41;4985693;28;20211;-88
2023/05/14 07:09:35;;;;;;;17.80;13.10;;;;;;;12.51;100.00;95442.63;4971400;28;20196;-88
2023/05/14 07:12:08;;;;;;;16.27;13.73;;;;;;;12.61;99.87;95442.28;4971406;28;20227;-88
2023/05/14 07:14:34;;;;;;;15.53;13.30;;;;;;;12.62;97.75;95438.72;4972326;28;20243;-87
2023/05/14 07:17:04;;;;;;;24.27;21.73;;;;;;;12.65;98.32;95426.22;4971543;28;20317;-88
2023/05/14 07:19:31;;;;;;;56.40;46.53;;;;;;;12.75;98.32;95426.63;4971659;28;20212;-87
2023/05/14 07:21:58;;;;;;;39.80;33.47;;;;;;;12.89;97.90;95416.34;4971749;28;20228;-88
2023/05/14 07:24:25;;;;;;;18.87;15.83;;;;;;;12.93;96.47;95415.75;4971783;28;20763;-88
2023/05/14 07:26:52;;;;;;;15.87;13.90;;;;;;;12.87;96.89;95410.59;4971410;28;20243;-88
2023/05/14 07:29:21;;;;;;;15.40;13.57;;;;;;;12.89;97.71;95416.34;4971236;28;20677;-88
2023/05/14 07:31:47;;;;;;;14.77;13.07;;;;;;;12.95;97.26;95418.94;4971197;28;20224;-88
2023/05/14 07:34:14;;;;;;;14.70;13.03;;;;;;;12.98;98.09;95413.38;4971935;28;20200;-88
2023/05/14 07:36:40;;;;;;;30.87;27.53;;;;;;;13.02;96.49;95417.19;4971978;28;20295;-88
2023/05/14 07:39:08;;;;;;;63.80;53.20;;;;;;;13.03;97.59;95415.41;4971258;28;20200;-88
2023/05/14 07:41:35;;;;;;;30.77;27.27;;;;;;;13.11;95.91;95421.16;4972084;28;20221;-88
2023/05/14 07:44:01;;;;;;;17.83;14.77;;;;;;;13.13;95.42;95418.38;4970904;28;20227;-88
2023/05/14 07:46:27;;;;;;;14.77;13.17;;;;;;;13.13;95.42;95424.34;4971578;28;20677;-88
2023/05/14 07:48:54;;;;;;;14.63;13.10;;;;;;;13.12;95.03;95414.22;4971695;28;20215;-87
2023/05/14 07:51:21;;;;;;;17.73;13.07;;;;;;;13.07;94.64;95416.59;4971744;28;20470;-88
2023/05/14 07:53:48;;;;;;;24.73;22.13;;;;;;;13.04;95.72;95407.44;4971362;28;20204;-88
2023/05/14 07:56:16;;;;;;;44.10;38.43;;;;;;;12.97;96.54;95406.63;4971001;28;20263;-88
2023/05/14 07:58:42;;;;;;;22.43;20.10;;;;;;;12.99;96.26;95409.81;4967470;28;20231;-87
2023/05/14 08:01:09;;;;;;;17.43;14.07;;;;;;;13.02;95.67;95393.94;4973364;28;20302;-87
2023/05/14 08:03:35;;;;;;;16.80;12.73;;;;;;;13.06;95.32;95392.53;4972741;28;20223;-87
2023/05/14 08:06:02;;;;;;;14.70;12.47;;;;;;;13.12;95.31;95399.50;4973753;28;20216;-86
2023/05/14 08:08:29;;;;;;;17.57;13.30;;;;;;;13.10;95.58;95400.69;4974144;28;20232;-87
2023/05/14 08:10:55;;;;;;;14.40;12.53;;;;;;;13.18;95.35;95402.31;4973496;28;20724;-87
2023/05/14 08:13:23;;;;;;;14.93;12.17;;;;;;;13.17;95.13;95398.16;4974678;28;20200;-89
2023/05/14 08:15:50;;;;;;;14.37;12.67;;;;;;;13.10;95.32;95396.31;4972622;28;20602;-86
2023/05/14 08:18:16;;;;;;;14.73;12.57;;;;;;;13.09;95.80;95399.88;4971995;28;20204;-87
2023/05/14 08:20:42;;;;;;;14.30;11.73;;;;;;;13.15;95.50;95398.34;4971829;28;20220;-87
2023/05/14 08:23:09;;;;;;;14.80;12.60;;;;;;;13.16;95.18;95402.53;4972239;28;20249;-87
2023/05/14 08:25:35;;;;;;;16.27;13.17;;;;;;;13.09;96.21;95405.06;4970965;28;20208;-87
2023/05/14 08:28:02;;;;;;;15.00;12.57;;;;;;;13.14;94.96;95407.84;4970924;28;20196;-87
2023/05/14 08:30:30;;;;;;;17.37;12.57;;;;;;;13.20;94.90;95408.91;4969594;28;20223;-86
2023/05/14 08:32:58;;;;;;;13.50;12.10;;;;;;;13.07;94.78;95408.84;4970084;28;20197;-86
2023/05/14 08:35:27;;;;;;;14.73;11.70;;;;;;;13.03;94.50;95412.81;4973065;28;20197;-87
2023/05/14 08:37:53;;;;;;;15.83;11.90;;;;;;;13.04;94.53;95406.66;4973233;28;20208;-87
2023/05/14 08:40:20;;;;;;;12.37;11.07;;;;;;;13.10;94.05;95413.59;4970348;28;20251;-87
2023/05/14 08:42:48;;;;;;;38.33;34.07;;;;;;;12.99;93.18;95416.78;4987404;28;20285;-87
2023/05/14 08:45:34;;;;;;;18.77;16.87;;;;;;;13.02;94.26;95408.63;4988254;28;20199;-87
2023/05/14 08:48:30;;;;;;;14.67;12.53;;;;;;;13.07;94.86;95406.25;4972261;28;20276;-86
2023/05/14 08:50:56;;;;;;;15.93;12.70;;;;;;;13.07;95.54;95409.66;4972436;28;20724;-87
2023/05/14 08:53:23;;;;;;;13.33;11.67;;;;;;;13.08;94.87;95413.03;4976934;28;20207;-87
2023/05/14 08:55:53;;;;;;;13.40;10.87;;;;;;;13.07;94.04;95399.31;4987528;28;20200;-87
2023/05/14 08:58:22;;;;;;;12.23;10.93;;;;;;;13.14;93.98;95404.47;4974873;28;20196;-87
2023/05/14 09:00:53;;;;;;;11.80;10.40;;;;;;;13.25;93.50;95396.19;4982409;28;20278;-87
2023/05/14 09:03:20;;;;;;;12.33;10.00;;;;;;;13.30;93.44;95400.75;4979191;28;20223;-88
2023/05/14 09:05:48;;;;;;;11.70;9.97;;;;;;;13.26;92.85;95399.56;4973052;28;20803;-87
2023/05/14 09:08:17;;;;;;;11.97;10.77;;;;;;;13.28;92.91;95394.97;4972796;28;20209;-88
2023/05/14 09:10:44;;;;;;;10.87;9.77;;;;;;;13.29;92.38;95396.56;4970544;28;20216;-88
2023/05/14 09:13:15;;;;;;;11.07;9.50;;;;;;;13.30;91.11;95396.38;4971057;28;20196;-86
2023/05/14 09:15:42;;;;;;;10.40;9.40;;;;;;;13.19;89.91;95391.00;4969334;28;20196;-88
2023/05/14 09:18:10;;;;;;;10.03;9.03;;;;;;;13.27;90.62;95394.19;4969263;28;20231;-87
2023/05/14 09:20:37;;;;;;;20.23;18.03;;;;;;;13.27;91.67;95395.97;4969026;28;20695;-88
2023/05/14 09:23:04;;;;;;;23.03;20.50;;;;;;;13.25;90.81;95391.00;4969395;28;20235;-88
2023/05/14 09:25:31;;;;;;;12.70;11.40;;;;;;;13.29;92.25;95393.97;4969754;28;20259;-88
2023/05/14 09:27:58;;;;;;;13.13;11.40;;;;;;;13.28;91.77;95388.00;4970385;28;20678;-88
2023/05/14 09:30:25;;;;;;;11.47;10.27;;;;;;;13.32;91.93;95394.38;4977915;28;20226;-87
2023/05/14 09:32:54;;;;;;;10.77;9.60;;;;;;;13.33;89.93;95393.38;4988773;28;20679;-88
2023/05/14 09:35:24;;;;;;;11.27;9.83;;;;;;;13.32;91.48;95393.59;4989843;28;20607;-88
2023/05/14 09:37:52;;;;;;;10.30;9.30;;;;;;;13.37;90.36;95389.41;4992732;28;20206;-88
2023/05/14 09:40:23;;;;;;;11.03;9.83;;;;;;;13.38;88.75;95390.22;4977508;28;20196;-87
2023/05/14 09:42:49;;;;;;;10.77;9.40;;;;;;;13.46;89.70;95387.44;4972551;28;20266;-88
2023/05/14 09:45:16;;;;;;;10.87;9.80;;;;;;;13.48;89.26;95395.78;4953426;28;20196;-88
2023/05/14 09:47:52;;;;;;;12.60;9.90;;;;;;;13.40;88.69;95396.00;4967043;28;20196;-88
2023/05/14 09:50:22;;;;;;;11.40;10.27;;;;;;;13.38;88.99;95391.00;4972222;28;20294;-88
2023/05/14 09:52:50;;;;;;;10.03;9.13;;;;;;;13.42;88.42;95384.44;4973038;28;20284;-88
2023/05/14 09:55:16;;;;;;;14.73;13.13;;;;;;;13.41;88.98;95384.66;4972479;28;20197;-88
2023/05/14 09:57:43;;;;;;;18.47;14.83;;;;;;;13.46;88.85;95388.25;4973064;28;20227;-87
2023/05/14 10:00:14;;;;;;;11.13;10.00;;;;;;;13.42;87.23;95392.22;4977201;28;20448;-87
2023/05/14 10:02:53;;;;;;;10.87;9.77;;;;;;;13.51;87.66;95381.66;4984192;28;20283;-87
2023/05/14 10:05:20;;;;;;;10.17;9.17;;;;;;;13.57;88.11;95379.06;4971830;28;20251;-88
2023/05/14 10:08:24;;;;;;;9.23;8.17;;;;;;;13.53;83.91;95385.63;4972211;28;20773;-88
2023/05/14 10:10:51;;;;;;;38.47;33.23;;;;;;;13.48;86.55;95386.22;4949893;28;20223;-88
2023/05/14 10:13:32;;;;;;;10.37;9.37;;;;;;;13.52;84.49;95389.22;4971802;28;20208;-87
2023/05/14 10:16:43;;;;;;;11.10;8.83;;;;;;;13.58;84.00;95383.25;4973492;28;20203;-88
2023/05/14 10:19:11;;;;;;;8.87;8.07;;;;;;;13.71;85.03;95387.63;4966995;28;20206;-88
2023/05/14 10:21:52;;;;;;;12.70;11.10;;;;;;;13.72;83.90;95386.63;4971388;28;20231;-89
2023/05/14 10:24:20;;;;;;;10.00;9.00;;;;;;;13.67;84.08;95386.41;4971740;28;20306;-87
2023/05/14 10:26:47;;;;;;;10.67;9.63;;;;;;;13.66;84.37;95393.38;4971669;28;20814;-87
2023/05/14 10:29:14;;;;;;;12.80;11.50;;;;;;;13.65;83.50;95384.06;4971500;28;20294;-88
2023/05/14 10:31:48;;;;;;;13.70;11.27;;;;;;;13.60;84.17;95391.63;4989899;28;20246;-88
2023/05/14 10:34:42;;;;;;;12.83;11.47;;;;;;;13.57;86.39;95384.25;4952082;28;20636;-88
2023/05/14 10:37:12;;;;;;;12.27;11.07;;;;;;;13.64;86.26;95384.25;4953817;28;20559;-88
2023/05/14 10:39:49;;;;;;;12.13;10.93;;;;;;;13.61;85.66;95389.81;4969313;28;20287;-87
2023/05/14 10:42:39;;;;;;;11.53;10.43;;;;;;;13.56;84.99;95387.81;4971636;28;20322;-88
2023/05/14 10:45:07;;;;;;;12.47;11.27;;;;;;;13.54;85.71;95392.41;4970875;28;20233;-88
2023/05/14 10:47:38;;;;;;;11.07;10.07;;;;;;;13.34;85.55;95394.97;4970717;28;20204;-87
2023/05/14 10:50:10;;;;;;;10.77;9.77;;;;;;;13.37;85.96;95394.59;4971253;28;20585;-89
2023/05/14 10:52:37;;;;;;;10.27;9.30;;;;;;;13.26;85.67;95384.06;4970767;28;20673;-89
2023/05/14 10:55:39;;;;;;;10.57;9.57;;;;;;;13.36;86.28;95390.41;4973613;28;20205;-90
2023/05/14 11:00:57;;;;;;;11.10;10.00;;;;;;;13.48;86.25;95388.00;4978091;28;20212;-86
2023/05/14 11:03:45;;;;;;;11.00;9.87;;;;;;;13.46;84.86;95380.47;4969682;28;20196;-88
2023/05/14 11:06:17;;;;;;;10.30;9.30;;;;;;;13.44;85.46;95379.88;4964524;28;20258;-88
2023/05/14 11:08:45;;;;;;;9.33;8.40;;;;;;;13.52;85.47;95378.06;4970799;28;20204;-86
2023/05/14 11:11:17;;;;;;;9.20;8.30;;;;;;;13.62;85.40;95381.88;4970522;28;20253;-86
2023/05/14 11:13:50;;;;;;;9.30;8.40;;;;;;;13.61;84.48;95382.06;4970787;28;20204;-89
2023/05/14 11:16:28;;;;;;;9.27;8.37;;;;;;;13.70;84.39;95379.06;4971963;28;20212;-89
2023/05/14 11:19:20;;;;;;;8.40;7.60;;;;;;;13.78;83.56;95378.06;4970540;28;20228;-87
2023/05/14 11:22:01;;;;;;;8.73;7.93;;;;;;;13.69;81.22;95376.66;4969842;28;20212;-87
2023/05/14 11:28:05;;;;;;;8.50;7.70;;;;;;;13.62;81.35;95363.75;4969771;28;20231;-86
2023/05/14 11:30:34;;;;;;;7.97;7.27;;;;;;;13.59;82.33;95360.78;5182174;23;20201;-86